createdAt,value
2023-05-18T00:01:14.776Z,63.14
2023-05-18T00:03:42.882Z,63.23
2023-05-18T00:06:10.962Z,63.21
2023-05-18T00:08:38.835Z,63.19
2023-05-18T00:11:06.863Z,63.18
2023-05-18T00:13:34.730Z,63.14
2023-05-18T00:16:02.552Z,63.13
2023-05-18T00:18:31.106Z,63.18
2023-05-18T00:21:00.755Z,63.29
2023-05-18T00:23:33.245Z,63.31
2023-05-18T00:26:01.991Z,63.32
2023-05-18T00:28:29.928Z,63.35
2023-05-18T00:30:58.107Z,63.32
2023-05-18T00:33:26.067Z,63.39
2023-05-18T00:35:54.054Z,63.40
2023-05-18T00:38:22.031Z,63.39
2023-05-18T00:40:50.099Z,63.40
2023-05-18T00:43:18.096Z,63.38
2023-05-18T00:45:46.182Z,63.37
2023-05-18T00:48:14.092Z,63.36
2023-05-18T00:50:41.904Z,63.40
2023-05-18T00:53:12.820Z,63.45
2023-05-18T00:55:41.068Z,63.49
2023-05-18T00:58:09.232Z,63.57
2023-05-18T01:00:37.858Z,63.59
2023-05-18T01:03:06.387Z,63.56
2023-05-18T01:05:34.453Z,63.60
2023-05-18T01:08:03.380Z,63.56
2023-05-18T01:10:33.265Z,63.60
2023-05-18T01:13:05.851Z,63.64
2023-05-18T01:15:38.181Z,63.65
2023-05-18T01:18:21.991Z,63.66
2023-05-18T01:20:57.701Z,63.64
2023-05-18T01:23:52.585Z,63.65
2023-05-18T01:26:24.958Z,63.71
2023-05-18T01:28:54.474Z,63.76
2023-05-18T01:31:23.226Z,63.77
2023-05-18T01:33:51.482Z,63.76
2023-05-18T01:36:19.674Z,63.67
2023-05-18T01:38:48.030Z,63.66
2023-05-18T01:41:24.213Z,63.71
2023-05-18T01:43:56.035Z,63.65
2023-05-18T01:46:43.693Z,63.63
2023-05-18T01:49:17.017Z,63.64
2023-05-18T01:51:46.380Z,63.67
2023-05-18T01:54:16.805Z,63.62
2023-05-18T01:56:45.589Z,63.66
2023-05-18T01:59:15.118Z,63.61
2023-05-18T02:01:43.165Z,63.57
2023-05-18T02:04:11.410Z,63.55
2023-05-18T02:06:39.731Z,63.54
2023-05-18T02:09:09.668Z,63.41
2023-05-18T02:11:37.655Z,63.44
2023-05-18T02:14:05.830Z,63.40
2023-05-18T02:16:33.828Z,63.34
2023-05-18T02:19:01.969Z,63.34
2023-05-18T02:21:31.568Z,63.29
2023-05-18T02:23:59.499Z,63.29
2023-05-18T02:26:27.573Z,63.23
2023-05-18T02:28:55.466Z,63.23
2023-05-18T02:31:23.318Z,63.33
2023-05-18T02:33:51.454Z,63.43
2023-05-18T02:36:22.669Z,63.45
2023-05-18T02:38:50.760Z,63.38
2023-05-18T02:41:18.615Z,63.38
2023-05-18T02:43:46.654Z,63.33
2023-05-18T02:46:14.673Z,63.27
2023-05-18T02:48:45.962Z,63.30
2023-05-18T02:51:14.054Z,63.32
2023-05-18T02:53:44.446Z,63.38
2023-05-18T02:56:13.952Z,63.40
2023-05-18T02:58:50.622Z,63.42
2023-05-18T03:01:27.068Z,63.41
2023-05-18T03:03:57.928Z,63.48
2023-05-18T03:06:27.088Z,63.50
2023-05-18T03:08:56.555Z,63.50
2023-05-18T03:11:29.943Z,63.38
2023-05-18T03:13:58.035Z,63.32
2023-05-18T03:16:28.887Z,63.38
2023-05-18T03:18:59.275Z,63.54
2023-05-18T03:21:36.179Z,63.60
2023-05-18T03:24:04.674Z,63.59
2023-05-18T03:26:33.773Z,63.68
2023-05-18T03:29:02.221Z,63.63
2023-05-18T03:31:30.476Z,63.61
2023-05-18T03:33:59.952Z,63.73
2023-05-18T03:36:30.535Z,63.69
2023-05-18T03:38:59.206Z,63.76
2023-05-18T03:41:28.501Z,63.73
2023-05-18T03:43:56.666Z,63.84
2023-05-18T03:46:25.267Z,63.83
2023-05-18T03:48:54.538Z,63.95
2023-05-18T03:51:29.166Z,63.96
2023-05-18T03:53:57.559Z,63.98
2023-05-18T03:56:26.150Z,63.99
2023-05-18T03:58:54.059Z,64.13
2023-05-18T04:01:24.024Z,64.11
2023-05-18T04:03:56.745Z,64.21
2023-05-18T04:06:27.174Z,64.21
2023-05-18T04:08:55.407Z,64.28
2023-05-18T04:11:24.609Z,64.29
2023-05-18T04:13:52.816Z,64.35
2023-05-18T04:16:22.095Z,64.37
2023-05-18T04:18:50.556Z,64.40
2023-05-18T04:21:19.448Z,64.39
2023-05-18T04:23:47.549Z,64.43
2023-05-18T04:26:20.204Z,64.44
2023-05-18T04:28:48.433Z,64.49
2023-05-18T04:31:18.105Z,64.50
2023-05-18T04:33:47.448Z,64.51
2023-05-18T04:36:21.384Z,64.53
2023-05-18T04:38:50.997Z,64.60
2023-05-18T04:41:22.658Z,64.58
2023-05-18T04:43:50.687Z,64.59
2023-05-18T04:46:19.051Z,64.58
2023-05-18T04:48:50.133Z,64.60
2023-05-18T04:51:21.599Z,64.68
2023-05-18T04:53:50.210Z,64.72
2023-05-18T04:56:18.726Z,64.66
2023-05-18T04:58:48.385Z,64.69
2023-05-18T05:01:17.180Z,64.66
2023-05-18T05:03:45.769Z,64.80
2023-05-18T05:06:13.843Z,64.83
2023-05-18T05:08:41.902Z,64.78
2023-05-18T05:11:09.810Z,64.93
2023-05-18T05:13:37.658Z,64.86
2023-05-18T05:16:06.070Z,65.01
2023-05-18T05:18:34.109Z,64.99
2023-05-18T05:21:02.189Z,64.97
2023-05-18T05:23:30.276Z,65.08
2023-05-18T05:25:58.341Z,65.02
2023-05-18T05:28:29.579Z,65.18
2023-05-18T05:30:57.782Z,65.11
2023-05-18T05:33:26.149Z,65.30
2023-05-18T05:35:54.540Z,65.21
2023-05-18T05:38:22.652Z,65.15
2023-05-18T05:40:50.706Z,65.21
2023-05-18T05:43:18.545Z,65.25
2023-05-18T05:45:47.592Z,65.32
2023-05-18T05:48:16.045Z,65.35
2023-05-18T05:50:43.989Z,65.46
2023-05-18T05:53:11.976Z,65.38
2023-05-18T05:55:43.612Z,65.41
2023-05-18T05:58:14.212Z,65.47
2023-05-18T06:00:46.790Z,65.49
2023-05-18T06:03:15.844Z,65.52
2023-05-18T06:05:46.338Z,65.51
2023-05-18T06:08:17.329Z,65.62
2023-05-18T06:10:46.245Z,65.69
2023-05-18T06:13:14.501Z,65.61
2023-05-18T06:15:47.900Z,65.69
2023-05-18T06:18:16.182Z,65.64
2023-05-18T06:20:45.660Z,65.67
2023-05-18T06:23:15.812Z,65.69
2023-05-18T06:26:13.047Z,65.64
2023-05-18T06:28:44.049Z,65.77
2023-05-18T06:31:34.879Z,65.86
2023-05-18T06:34:15.600Z,65.78
2023-05-18T06:36:43.834Z,65.78
2023-05-18T06:39:11.754Z,65.84
2023-05-18T06:41:39.982Z,65.89
2023-05-18T06:44:07.902Z,65.86
2023-05-18T06:46:40.331Z,65.88
2023-05-18T06:49:21.622Z,65.83
2023-05-18T06:51:49.577Z,65.79
2023-05-18T06:54:17.805Z,65.79
2023-05-18T06:56:46.470Z,65.74
2023-05-18T06:59:14.349Z,65.71
2023-05-18T07:01:42.616Z,65.70
2023-05-18T07:04:11.340Z,65.57
2023-05-18T07:06:39.263Z,65.58
2023-05-18T07:09:08.876Z,65.53
2023-05-18T07:11:36.869Z,65.45
2023-05-18T07:14:04.808Z,65.41
2023-05-18T07:16:32.752Z,65.37
2023-05-18T07:19:00.853Z,65.21
2023-05-18T07:21:28.808Z,65.15
2023-05-18T07:23:56.712Z,65.07
2023-05-18T07:26:24.560Z,65.01
2023-05-18T07:28:52.322Z,64.98
2023-05-18T07:31:21.753Z,64.98
2023-05-18T07:33:50.312Z,64.94
2023-05-18T07:36:18.370Z,65.00
2023-05-18T07:38:46.636Z,65.04
2023-05-18T07:41:14.478Z,65.08
2023-05-18T07:43:42.440Z,65.06
2023-05-18T07:46:10.308Z,65.05
2023-05-18T07:48:40.519Z,65.08
2023-05-18T07:51:09.372Z,65.10
2023-05-18T07:53:38.113Z,65.03
2023-05-18T07:56:07.575Z,65.01
2023-05-18T07:58:36.768Z,65.03
2023-05-18T08:01:04.722Z,64.92
2023-05-18T08:03:33.184Z,64.94
2023-05-18T08:06:01.230Z,64.95
2023-05-18T08:08:29.395Z,64.89
2023-05-18T08:10:57.692Z,64.90
2023-05-18T08:13:25.872Z,64.84
2023-05-18T08:16:09.776Z,64.86
2023-05-18T08:18:40.187Z,64.89
2023-05-18T08:21:10.060Z,64.87
2023-05-18T08:23:38.866Z,64.68
2023-05-18T08:26:10.056Z,64.80
2023-05-18T08:28:39.066Z,64.87
2023-05-18T08:31:07.573Z,64.79
2023-05-18T08:33:35.522Z,64.76
2023-05-18T08:36:03.565Z,64.78
2023-05-18T08:38:32.279Z,64.77
2023-05-18T08:41:26.701Z,64.73
2023-05-18T08:44:04.992Z,64.77
2023-05-18T08:46:34.253Z,64.69
2023-05-18T08:49:03.605Z,64.73
2023-05-18T08:51:34.118Z,64.65
2023-05-18T08:54:02.945Z,64.69
2023-05-18T08:56:31.624Z,64.71
2023-05-18T08:58:59.999Z,64.74
2023-05-18T09:01:31.348Z,64.67
2023-05-18T09:04:00.846Z,64.69
2023-05-18T09:06:29.051Z,64.80
2023-05-18T09:09:04.475Z,64.79
2023-05-18T09:11:33.175Z,64.79
2023-05-18T09:14:01.493Z,64.82
2023-05-18T09:16:30.535Z,64.83
2023-05-18T09:18:58.537Z,64.80
2023-05-18T09:21:26.474Z,64.83
2023-05-18T09:23:54.670Z,64.87
2023-05-18T09:26:22.960Z,64.87
2023-05-18T09:28:54.387Z,64.87
2023-05-18T09:31:24.954Z,64.88
2023-05-18T09:33:53.238Z,64.85
2023-05-18T09:36:26.526Z,64.87
2023-05-18T09:38:54.642Z,64.78
2023-05-18T09:41:26.086Z,64.81
2023-05-18T09:43:54.667Z,64.79
2023-05-18T09:46:22.543Z,64.73
2023-05-18T09:48:51.607Z,64.74
2023-05-18T09:51:21.149Z,64.73
2023-05-18T09:53:49.912Z,64.62
2023-05-18T09:56:18.070Z,64.64
2023-05-18T09:58:46.168Z,64.63
2023-05-18T10:01:14.150Z,64.67
2023-05-18T10:03:42.365Z,64.66
2023-05-18T10:06:13.479Z,64.50
2023-05-18T10:08:41.770Z,64.52
2023-05-18T10:11:09.826Z,64.56
2023-05-18T10:13:38.318Z,64.45
2023-05-18T10:16:07.953Z,64.36
2023-05-18T10:18:37.057Z,64.36
2023-05-18T10:21:06.231Z,64.26
2023-05-18T10:23:35.654Z,64.22
2023-05-18T10:26:07.950Z,64.19
2023-05-18T10:28:41.946Z,64.10
2023-05-18T10:31:10.078Z,64.01
2023-05-18T10:33:38.889Z,63.85
2023-05-18T10:36:07.707Z,63.93
2023-05-18T10:38:36.918Z,63.94
2023-05-18T10:41:05.904Z,63.83
2023-05-18T10:43:34.323Z,63.80
2023-05-18T10:46:02.442Z,63.71
2023-05-18T10:48:31.613Z,63.66
2023-05-18T10:50:59.732Z,63.69
2023-05-18T10:53:30.087Z,63.63
2023-05-18T10:55:58.055Z,63.56
2023-05-18T10:58:27.945Z,63.61
2023-05-18T11:00:57.439Z,63.58
2023-05-18T11:03:27.117Z,63.35
2023-05-18T11:06:06.985Z,63.35
2023-05-18T11:08:42.772Z,63.37
2023-05-18T11:11:10.647Z,63.24
2023-05-18T11:13:43.655Z,63.34
2023-05-18T11:16:11.646Z,63.31
2023-05-18T11:18:47.113Z,63.11
2023-05-18T11:21:18.813Z,63.26
2023-05-18T11:24:05.441Z,63.01
2023-05-18T11:26:38.101Z,62.85
2023-05-18T11:29:19.404Z,62.93
2023-05-18T11:31:51.854Z,62.75
2023-05-18T11:34:39.804Z,62.73
2023-05-18T11:37:10.434Z,62.66
2023-05-18T11:39:47.883Z,62.61
2023-05-18T11:42:23.518Z,62.53
2023-05-18T11:44:52.549Z,62.53
2023-05-18T11:47:20.631Z,62.47
2023-05-18T11:49:49.179Z,62.38
2023-05-18T11:52:19.121Z,62.23
2023-05-18T11:54:54.279Z,62.34
2023-05-18T11:57:34.757Z,62.34
2023-05-18T12:00:09.692Z,62.25
2023-05-18T12:02:45.603Z,62.25
2023-05-18T12:05:14.388Z,62.16
2023-05-18T12:07:42.854Z,62.12
2023-05-18T12:10:17.782Z,62.12
2023-05-18T12:12:48.060Z,62.03
2023-05-18T12:15:17.481Z,62.06
2023-05-18T12:17:47.177Z,61.91
2023-05-18T12:20:16.752Z,61.93
2023-05-18T12:22:46.132Z,61.78
2023-05-18T12:25:13.961Z,61.77
2023-05-18T12:27:43.921Z,61.65
2023-05-18T12:30:19.068Z,61.58
2023-05-18T12:32:54.804Z,61.59
2023-05-18T12:35:23.798Z,61.43
2023-05-18T12:37:52.256Z,61.44
2023-05-18T12:40:20.518Z,61.35
2023-05-18T12:42:55.289Z,61.34
2023-05-18T12:45:25.800Z,61.37
2023-05-18T12:47:55.433Z,61.40
2023-05-18T12:50:27.718Z,61.18
2023-05-18T12:52:59.361Z,61.06
2023-05-18T12:55:28.388Z,61.01
2023-05-18T12:58:07.656Z,60.98
2023-05-18T13:00:36.485Z,60.81
2023-05-18T13:03:10.266Z,60.88
2023-05-18T13:05:42.046Z,60.62
2023-05-18T13:08:13.913Z,60.59
2023-05-18T13:10:43.220Z,60.58
2023-05-18T13:13:15.695Z,60.45
2023-05-18T13:15:44.193Z,60.20
2023-05-18T13:18:12.641Z,60.01
2023-05-18T13:20:42.991Z,60.12
2023-05-18T13:23:10.960Z,59.95
2023-05-18T13:25:39.553Z,60.13
2023-05-18T13:28:07.697Z,59.85
2023-05-18T13:30:35.598Z,59.83
2023-05-18T13:33:03.833Z,59.95
2023-05-18T13:35:31.938Z,59.81
2023-05-18T13:38:00.336Z,59.61
2023-05-18T13:40:28.441Z,59.58
2023-05-18T13:42:56.327Z,59.50
2023-05-18T13:45:24.469Z,59.40
2023-05-18T13:47:53.759Z,59.45
2023-05-18T13:50:23.140Z,59.45
2023-05-18T13:52:51.223Z,59.61
2023-05-18T13:55:19.297Z,59.57
2023-05-18T13:57:47.279Z,59.57
2023-05-18T14:00:17.091Z,59.53
2023-05-18T14:02:45.109Z,59.65
2023-05-18T14:05:13.596Z,59.56
2023-05-18T14:07:42.306Z,59.34
2023-05-18T14:10:10.982Z,59.32
2023-05-18T14:12:39.367Z,59.44
2023-05-18T14:15:07.583Z,59.52
2023-05-18T14:17:36.127Z,59.57
2023-05-18T14:20:07.359Z,59.70
2023-05-18T14:22:35.236Z,59.58
2023-05-18T14:25:03.160Z,59.62
2023-05-18T14:27:31.431Z,59.67
2023-05-18T14:29:59.325Z,59.17
2023-05-18T14:32:27.255Z,59.21
2023-05-18T14:34:58.113Z,59.20
2023-05-18T14:37:26.321Z,59.15
2023-05-18T14:39:54.525Z,59.07
2023-05-18T14:42:22.612Z,59.18
2023-05-18T14:44:50.623Z,59.12
2023-05-18T14:47:18.478Z,59.17
2023-05-18T14:49:46.288Z,59.19
2023-05-18T14:52:16.562Z,59.03
2023-05-18T14:54:44.536Z,58.99
2023-05-18T14:57:12.932Z,59.02
2023-05-18T14:59:40.853Z,59.15
2023-05-18T15:02:09.229Z,59.16
2023-05-18T15:04:37.300Z,59.02
2023-05-18T15:07:06.452Z,59.21
2023-05-18T15:09:34.231Z,59.10
2023-05-18T15:12:02.500Z,58.98
2023-05-18T15:14:30.568Z,58.91
2023-05-18T15:16:58.901Z,59.02
2023-05-18T15:19:27.222Z,59.14
2023-05-18T15:21:55.036Z,59.14
2023-05-18T15:24:22.886Z,59.33
2023-05-18T15:26:51.393Z,59.33
2023-05-18T15:29:19.252Z,59.47
2023-05-18T15:31:50.965Z,59.51
2023-05-18T15:34:19.382Z,59.60
2023-05-18T15:36:47.359Z,59.68
2023-05-18T15:39:15.308Z,59.58
2023-05-18T15:41:43.082Z,59.60
2023-05-18T15:44:11.099Z,59.67
2023-05-18T15:46:38.927Z,59.71
2023-05-18T15:49:06.789Z,59.72
2023-05-18T15:51:34.615Z,59.69
2023-05-18T15:54:02.591Z,59.59
2023-05-18T15:56:30.445Z,59.46
2023-05-18T15:58:58.348Z,59.61
2023-05-18T16:01:26.218Z,59.71
2023-05-18T16:03:54.075Z,59.82
2023-05-18T16:06:22.136Z,59.72
2023-05-18T16:08:50.107Z,59.87
2023-05-18T16:11:18.075Z,59.90
2023-05-18T16:13:47.791Z,59.99
2023-05-18T16:16:16.330Z,60.12
2023-05-18T16:18:44.276Z,60.18
2023-05-18T16:21:12.326Z,60.08
2023-05-18T16:23:41.742Z,60.29
2023-05-18T16:26:10.234Z,60.31
2023-05-18T16:28:38.095Z,60.34
2023-05-18T16:31:08.174Z,60.31
2023-05-18T16:33:36.134Z,60.24
2023-05-18T16:36:05.191Z,60.31
2023-05-18T16:38:37.585Z,60.20
2023-05-18T16:41:05.902Z,60.18
2023-05-18T16:43:35.482Z,60.22
2023-05-18T16:46:03.606Z,60.38
2023-05-18T16:48:31.621Z,60.37
2023-05-18T16:50:59.361Z,60.29
2023-05-18T16:53:27.179Z,60.40
2023-05-18T16:55:55.326Z,60.42
2023-05-18T16:58:23.171Z,60.40
2023-05-18T17:00:51.285Z,60.48
2023-05-18T17:03:19.777Z,60.45
2023-05-18T17:05:48.350Z,60.52
2023-05-18T17:08:16.143Z,60.43
2023-05-18T17:10:43.965Z,60.52
2023-05-18T17:13:11.802Z,60.46
2023-05-18T17:15:39.630Z,60.44
2023-05-18T17:18:07.728Z,60.52
2023-05-18T17:20:35.654Z,60.37
2023-05-18T17:23:04.589Z,60.50
2023-05-18T17:25:32.586Z,60.43
2023-05-18T17:28:00.656Z,60.48
2023-05-18T17:30:28.529Z,60.50
2023-05-18T17:32:56.739Z,60.42
2023-05-18T17:35:25.206Z,60.61
2023-05-18T17:37:54.694Z,60.48
2023-05-18T17:40:22.651Z,60.63
2023-05-18T17:42:50.611Z,60.57
2023-05-18T17:45:18.807Z,60.56
2023-05-18T17:47:46.699Z,60.63
2023-05-18T17:50:14.753Z,60.51
2023-05-18T17:52:42.830Z,60.61
2023-05-18T17:55:10.741Z,60.54
2023-05-18T17:57:45.404Z,60.65
2023-05-18T18:00:13.763Z,60.48
2023-05-18T18:02:42.436Z,60.47
2023-05-18T18:05:10.898Z,60.41
2023-05-18T18:07:39.288Z,60.33
2023-05-18T18:10:07.337Z,60.38
2023-05-18T18:12:35.134Z,60.52
2023-05-18T18:15:03.214Z,60.45
2023-05-18T18:17:33.169Z,60.51
2023-05-18T18:20:01.082Z,60.43
2023-05-18T18:22:28.994Z,60.45
2023-05-18T18:24:56.846Z,60.52
2023-05-18T18:27:24.684Z,60.64
2023-05-18T18:29:53.002Z,60.51
2023-05-18T18:32:20.830Z,60.65
2023-05-18T18:34:48.605Z,60.63
2023-05-18T18:37:17.329Z,60.96
2023-05-18T18:39:45.294Z,61.16
2023-05-18T18:42:13.172Z,61.25
2023-05-18T18:44:41.270Z,61.51
2023-05-18T18:47:09.143Z,61.66
2023-05-18T18:49:37.046Z,61.81
2023-05-18T18:52:05.693Z,62.10
2023-05-18T18:54:33.553Z,62.13
2023-05-18T18:57:02.146Z,62.15
2023-05-18T18:59:30.023Z,62.17
2023-05-18T19:01:58.208Z,62.27
2023-05-18T19:04:26.111Z,62.19
2023-05-18T19:06:55.264Z,62.14
2023-05-18T19:09:23.082Z,62.15
2023-05-18T19:11:51.044Z,62.33
2023-05-18T19:14:18.992Z,62.40
2023-05-18T19:16:47.066Z,62.34
2023-05-18T19:19:15.220Z,62.40
2023-05-18T19:21:44.441Z,62.47
2023-05-18T19:24:12.725Z,62.45
2023-05-18T19:26:40.712Z,62.46
2023-05-18T19:29:08.578Z,62.57
2023-05-18T19:31:38.081Z,62.45
2023-05-18T19:34:06.161Z,62.56
2023-05-18T19:36:34.010Z,62.60
2023-05-18T19:39:01.822Z,62.50
2023-05-18T19:41:29.759Z,62.67
2023-05-18T19:43:57.744Z,62.58
2023-05-18T19:46:25.639Z,62.64
2023-05-18T19:48:56.292Z,62.59
2023-05-18T19:51:24.473Z,62.67
2023-05-18T19:53:52.252Z,62.71
2023-05-18T19:56:21.912Z,62.63
2023-05-18T19:58:49.751Z,62.79
2023-05-18T20:01:18.862Z,62.77
2023-05-18T20:03:48.075Z,62.80
2023-05-18T20:06:16.254Z,62.88
2023-05-18T20:08:44.681Z,62.82
2023-05-18T20:11:12.762Z,62.89
2023-05-18T20:13:43.058Z,62.93
2023-05-18T20:16:10.903Z,62.96
2023-05-18T20:18:40.258Z,62.81
2023-05-18T20:21:08.735Z,63.03
2023-05-18T20:23:36.790Z,63.00
2023-05-18T20:26:06.013Z,62.99
2023-05-18T20:28:33.926Z,63.05
2023-05-18T20:31:01.878Z,63.06
2023-05-18T20:33:30.431Z,63.09
2023-05-18T20:35:59.960Z,63.19
2023-05-18T20:38:28.243Z,63.18
2023-05-18T20:40:58.173Z,63.18
2023-05-18T20:43:26.036Z,63.21
2023-05-18T20:45:54.016Z,63.18
2023-05-18T20:48:26.914Z,63.18
2023-05-18T20:50:55.070Z,63.26
2023-05-18T20:53:23.145Z,63.26
2023-05-18T20:55:51.036Z,63.27
2023-05-18T20:58:19.192Z,63.23
2023-05-18T21:00:48.087Z,63.29
2023-05-18T21:03:18.459Z,63.36
2023-05-18T21:05:49.593Z,63.37
2023-05-18T21:08:17.638Z,63.39
2023-05-18T21:10:45.696Z,63.42
2023-05-18T21:13:13.700Z,63.47
2023-05-18T21:15:41.701Z,63.43
2023-05-18T21:18:10.189Z,63.55
2023-05-18T21:20:38.292Z,63.56
2023-05-18T21:23:06.172Z,63.61
2023-05-18T21:25:34.012Z,63.61
2023-05-18T21:28:02.250Z,63.50
2023-05-18T21:30:31.598Z,63.66
2023-05-18T21:32:59.838Z,63.76
2023-05-18T21:35:28.025Z,63.70
2023-05-18T21:37:55.799Z,63.69
2023-05-18T21:40:23.740Z,63.68
2023-05-18T21:42:51.510Z,63.73
2023-05-18T21:45:21.976Z,63.75
2023-05-18T21:47:50.941Z,63.79
2023-05-18T21:50:19.164Z,63.80
2023-05-18T21:52:46.955Z,63.80
2023-05-18T21:55:14.807Z,63.86
2023-05-18T21:57:42.804Z,63.74
2023-05-18T22:00:14.144Z,63.71
2023-05-18T22:02:41.909Z,63.78
2023-05-18T22:05:10.065Z,63.71
2023-05-18T22:07:37.946Z,63.72
2023-05-18T22:10:06.515Z,63.75
2023-05-18T22:12:34.479Z,63.64
2023-05-18T22:15:02.401Z,63.59
2023-05-18T22:17:30.225Z,63.63
2023-05-18T22:19:58.098Z,63.50
2023-05-18T22:22:30.419Z,63.54
2023-05-18T22:24:58.617Z,63.42
2023-05-18T22:27:26.837Z,63.41
2023-05-18T22:29:54.869Z,63.37
2023-05-18T22:32:22.865Z,63.36
2023-05-18T22:34:51.045Z,63.34
2023-05-18T22:37:19.090Z,63.42
2023-05-18T22:39:47.110Z,63.34
2023-05-18T22:42:15.076Z,63.30
2023-05-18T22:44:43.085Z,63.21
2023-05-18T22:47:11.643Z,63.16
2023-05-18T22:49:41.361Z,63.14
2023-05-18T22:52:10.457Z,63.22
2023-05-18T22:54:38.430Z,63.19
2023-05-18T22:57:06.481Z,63.21
2023-05-18T22:59:35.335Z,63.11
2023-05-18T23:02:06.343Z,63.20
2023-05-18T23:04:35.712Z,63.21
2023-05-18T23:07:04.266Z,63.21
2023-05-18T23:09:32.248Z,63.19
2023-05-18T23:12:01.359Z,63.19
2023-05-18T23:14:31.333Z,63.21
2023-05-18T23:16:59.970Z,63.31
2023-05-18T23:19:27.978Z,63.32
2023-05-18T23:21:56.628Z,63.27
2023-05-18T23:24:24.401Z,63.32
2023-05-18T23:26:52.262Z,63.33
2023-05-18T23:29:20.237Z,63.32
2023-05-18T23:31:48.106Z,63.39
2023-05-18T23:34:16.358Z,63.46
2023-05-18T23:36:45.188Z,63.38
2023-05-18T23:39:13.261Z,63.44
2023-05-18T23:41:42.125Z,63.43
2023-05-18T23:44:10.207Z,63.46
2023-05-18T23:46:38.415Z,63.50
2023-05-18T23:49:07.082Z,63.52
2023-05-18T23:51:36.417Z,63.56
2023-05-18T23:54:07.419Z,63.56
2023-05-18T23:56:36.114Z,63.61
2023-05-18T23:59:04.391Z,63.63
